Aérodrome :
LOGIN :

S'inscrire | Disclaimer

   EN    FR    IT 

 










Légende :    VFR   VFR Marginal   IFR   IFR Intensif   IFR Très Intensif
Visi : 
Plafond : 
>= 8 km
>= 3000ft
5 à 8 km
1000 à 3000 ft
1500m à 5 km
500 à 1000 ft
800 à 1500m
200 à 500 ft
< 800m
< 200 ft
Symboles :   Orages  Brouillard  Fortes neiges  Fortes précipitations  Vent > 20 kt
SIGMETs :   Divers  Orages  Givrage  Turbulence  Onde Orograph.  Cendres Volcan.






- Altitude de l'aérodrome : 1521 ft
- Code IATA : NCY


LFLP - Annecy

DERNIER METAR :
  • 182000Z AUTO 11003KT 9999 FEW044 SCT062 OVC094 09/07 Q1018

METARs EXPIRÉS :
  • 181930Z AUTO 00000KT 9999 FEW048 BKN054 BKN066 10/08 Q1018 NOSIG
  • 181900Z AUTO VRB02KT 9999 OVC066 10/08 Q1017 NOSIG
  • 181830Z AUTO 12002KT 9999 FEW060 OVC074 10/08 Q1017 NOSIG
  • 181800Z AUTO 12003KT 090V150 9999 FEW048 BKN058 BKN070 10/08 Q1017 TEMPO FEW035TCU BKN040

TAF TAF LFLP
Valide du 18 à 15h jusqu'au 19 à 15h UTC


181400Z 1815/1915 27005KT 9999 BKN050
TEMPO 1815/1819 -RA FEW035TCU BKN040
TEMPO 1820/1906 -SHRA BKN030
TEMPO 1906/1909 SHRA SCT012TCU BKN018
TEMPO 1909/1915 VRB12G25KT 4000 SHRA SCT025CB
PROB30
TEMPO 1911/1915 VRB20G35KT 2500 -TSRA



MET'MAP, la Météo Aéronautique d'un coup d'oeil ! - Copyright ORBIFLY Décembre 2007 - Disclaimer

ORBIFLY MET'MAP TEAM :

Programmation & Développement : Alexandra Zaïnal
Sur une idée originale de : Baudouin d'Aumeries
Assistance à la programmation : Marc-Olivier Méhu
Soutien technique & logistique : Manuel Goepfert

Contact : metmap@orbifly.com




SOURCES & CREDITS :

   NOAA